Historyczne dane pomiarowe

Dodano dane terminowe – wersja testowa.

Dane z okresu 1951-2019

Wersja bazy: 1.34 [2019-03-16, lista zmian], aktualizacja planowana na 2019-04-15

Dane meteo z obszaru Polski uzyskane na podstawie danych udostępnionych przez Instytut Meteorologii i Gospodarki Wodnej – Państwowy Instytut Badawczy.

 

Wybierz Datę:    

       

TemperaturaWilgotnośćWiatrCiśnienieOpadyŚniegCzas trwania zjawisk
 Stacja t tx tn tng RH VA  wxwx mslp ppp RRR   cm mm wxwxwxwxwxwxwx
2018-03-18 -7.4 -4.0-10.5-11.5-- 2.7----- 0.0-- 17---------
2018-03-19 -5.7 -3.5 -7.5 -7.5-- 1.0----- 0.2-- 14---------
2018-03-20 -3.4 -0.5 -5.4 -5.6-- 4.3----- 5.0-- 10---------
2018-03-21 -3.7 1.0 -9.0-10.0-- 2.3----- 0.0-- 14---------
2018-03-22 -5.3 4.0-13.0-15.0-- 1.0----- 0.0-- 9---------
2018-03-23 -4.6 2.0 -9.5-13.0-- 1.0----- 0.0-- 7---------
2018-03-24 -4.2 5.5-12.0-14.0-- 1.3----- 0.0-- 6---------
2018-03-25 1.0 9.0 -5.4 -8.0-- 1.0----- 0.0-- 4---------
2018-03-26 2.1 8.5 -2.4 -4.6-- 2.0----- 0.0------------
2018-03-27 2.5 6.5 1.1 -0.2-- 2.0----- 2.0------------
2018-03-28 0.8 3.0 -0.4 -0.7-- 3.7----- 3.6-- 4---------
2018-03-29 2.7 5.5 0.1 -0.6-- 5.3----- 7.8------------
2018-03-30 5.6 10.5 3.1 2.8-- 4.7----- 3.5------------
2018-03-31 7.8 12.0 4.5 3.3-- 3.7----- 2.6------------
2018-04-01 7.9 11.0 5.8 5.2-- 7.3----- 22.7------------
2018-04-02 2.8 6.1 0.6 -0.2-- 6.0----- 0.0------------
2018-04-03 8.0 16.4 1.8 -3.1-- 2.3----- 0.0------------
2018-04-04 11.8 21.8 3.6 0.8-- 1.0----- 0.0------------
2018-04-05 14.0 20.4 10.0 6.3-- 1.3----- 0.7------------
2018-04-06 10.7 15.9 8.5 6.3-- 3.7----- 2.0------------
2018-04-07 6.5 14.4 -0.4 -2.6-- 1.3----- 0.0------------
2018-04-08 14.4 21.8 5.0 2.3-- 1.3----- 0.0------------
2018-04-09 15.3 24.8 8.5 5.3-- 1.7----- 0.0------------
2018-04-10 14.4 23.8 8.8 4.8-- 4.3----- 0.2------------
2018-04-11 14.5 22.3 8.0 6.8-- 1.3----- 0.0------------
2018-04-12 13.2 21.3 7.4 6.8-- 2.0----- 0.0------------
2018-04-13 14.8 23.3 7.5 6.8-- 1.3----- 0.0------------
2018-04-14 15.5 23.3 9.0 6.3-- 1.3----- 0.0------------
2018-04-15 15.2 25.3 7.5 4.8-- 1.3----- 0.0------------
2018-04-16 17.6 24.8 11.9 8.3-- 2.3----- 0.0------------
143.5 ms

 

Źródłem pochodzenia danych jest Instytut Meteorologii i Gospodarki Wodnej – Państwowy Instytut Badawczy. Dane Instytutu Meteorologii i Gospodarki Wodnej – Państwowego Instytutu Badawczego zostały przetworzone.

Dane źródłowe można odnaleźć na stronie https://dane.imgw.pl